Time;durP1;ratioP1;P1;durP2;ratioP2;P2;SDS_P1;SDS_P2;PMS_P1;PMS_P2;Temp;Humidity;BMP_temperature;BMP_pressure;BME280_temperature;BME280_humidity;BME280_pressure;Samples;Min_cycle;Max_cycle;Signal;HPM_P1;HPM_P2
2021/11/13 00:02:11;;;;;;;2.03;0.77;;;;;;;11.12;69.84;99430.50;4967319;28;20090;-48
2021/11/13 00:04:38;;;;;;;1.63;0.88;;;;;;;11.10;69.59;99447.78;4968699;28;20047;-46
2021/11/13 00:07:05;;;;;;;5.10;1.30;;;;;;;11.13;70.11;99453.81;4965424;28;20142;-55
2021/11/13 00:09:31;;;;;;;1.02;0.55;;;;;;;11.11;69.34;99452.13;4968279;28;20043;-52
2021/11/13 00:11:58;;;;;;;1.92;0.60;;;;;;;11.10;70.51;99465.94;4968181;28;20059;-47
2021/11/13 00:14:27;;;;;;;2.28;1.00;;;;;;;11.12;70.56;99466.78;4969435;28;20051;-53
2021/11/13 00:16:55;;;;;;;1.13;0.63;;;;;;;11.10;69.66;99468.53;4968342;28;20054;-47
2021/11/13 00:19:21;;;;;;;4.07;0.88;;;;;;;11.08;70.19;99465.09;4968104;28;20542;-47
2021/11/13 00:21:48;;;;;;;3.58;1.08;;;;;;;11.07;70.18;99466.00;4967564;28;20125;-47
2021/11/13 00:24:14;;;;;;;3.55;0.57;;;;;;;11.12;69.74;99472.81;4968265;28;20582;-51
2021/11/13 00:26:41;;;;;;;1.95;0.82;;;;;;;11.13;70.54;99479.72;4968774;28;20121;-50
2021/11/13 00:29:08;;;;;;;1.25;0.55;;;;;;;11.04;70.30;99480.69;4967351;28;20443;-46
2021/11/13 00:31:35;;;;;;;2.47;0.43;;;;;;;11.07;69.83;99481.53;4967399;28;20129;-44
2021/11/13 00:34:02;;;;;;;0.52;0.47;;;;;;;11.00;70.65;99484.22;4970398;28;20105;-47
2021/11/13 00:36:29;;;;;;;0.90;0.43;;;;;;;11.05;70.61;99476.38;4997056;28;20054;-46
2021/11/13 00:38:55;;;;;;;2.63;1.42;;;;;;;11.05;70.14;99477.22;4967786;28;20058;-43
2021/11/13 00:41:22;;;;;;;2.53;0.47;;;;;;;11.02;70.30;99477.25;4997999;28;20064;-49
2021/11/13 00:43:49;;;;;;;0.82;0.43;;;;;;;11.04;71.11;99474.66;4966619;28;20539;-49
2021/11/13 00:46:16;;;;;;;0.88;0.45;;;;;;;11.02;70.13;99474.66;4969170;28;20058;-48
2021/11/13 00:48:42;;;;;;;1.33;0.32;;;;;;;11.03;70.31;99473.81;4968440;28;20526;-45
2021/11/13 00:51:09;;;;;;;3.85;0.65;;;;;;;11.08;70.37;99485.84;4965215;28;20467;-44
2021/11/13 00:53:36;;;;;;;1.48;0.45;;;;;;;11.06;70.98;99472.91;4967599;28;20046;-47
2021/11/13 00:56:03;;;;;;;2.13;1.02;;;;;;;11.08;70.94;99478.06;4967712;28;20051;-47
2021/11/13 00:58:30;;;;;;;3.13;0.43;;;;;;;11.02;70.68;99468.66;4967091;28;20046;-46
2021/11/13 01:00:56;;;;;;;1.10;0.30;;;;;;;10.99;70.05;99479.91;4968552;28;20054;-47
2021/11/13 01:03:23;;;;;;;1.02;0.85;;;;;;;10.99;70.42;99482.50;4967230;28;20105;-46
2021/11/13 01:05:51;;;;;;;0.63;0.45;;;;;;;10.91;70.79;99489.53;4967935;28;20047;-46
2021/11/13 01:08:17;;;;;;;0.47;0.47;;;;;;;10.90;71.03;99485.19;4964933;28;20121;-48
2021/11/13 01:10:44;;;;;;;1.65;0.30;;;;;;;10.96;70.45;99498.09;4968419;28;20109;-54
2021/11/13 01:13:11;;;;;;;1.60;0.38;;;;;;;10.91;71.18;99516.28;4964621;28;20187;-50
2021/11/13 01:15:37;;;;;;;1.42;0.68;;;;;;;10.89;70.72;99507.69;4965181;28;20050;-48
2021/11/13 01:18:04;;;;;;;4.57;0.47;;;;;;;10.93;71.70;99521.44;4967877;28;20101;-49
2021/11/13 01:20:31;;;;;;;3.22;0.30;;;;;;;10.90;71.45;99519.75;4967241;28;20597;-49
2021/11/13 01:22:59;;;;;;;2.75;0.52;;;;;;;10.91;71.75;99515.44;4967005;28;20051;-49
2021/11/13 01:25:27;;;;;;;1.48;0.45;;;;;;;10.85;72.03;99510.31;4966933;28;20095;-52
2021/11/13 01:27:54;;;;;;;2.28;0.65;;;;;;;10.86;71.18;99512.03;4967556;28;20051;-45
2021/11/13 01:30:21;;;;;;;1.58;0.55;;;;;;;10.82;71.86;99512.94;4968660;28;20058;-49
2021/11/13 01:32:48;;;;;;;2.50;0.80;;;;;;;10.77;72.12;99513.84;4968483;28;20066;-51
2021/11/13 01:35:16;;;;;;;2.25;1.15;;;;;;;10.76;71.92;99512.16;4995152;28;20101;-48
2021/11/13 01:37:43;;;;;;;3.15;1.00;;;;;;;10.78;72.16;99505.19;4968145;28;20054;-47
2021/11/13 01:40:15;;;;;;;0.30;0.20;;;;;;;10.70;72.13;99507.03;4966377;28;20051;-50
2021/11/13 01:42:43;;;;;;;0.63;0.63;;;;;;;10.76;71.63;99512.16;4966893;28;20054;-48
2021/11/13 01:45:10;;;;;;;1.10;1.00;;;;;;;10.76;72.13;99517.34;4964807;28;20554;-51
2021/11/13 01:47:38;;;;;;;2.45;0.68;;;;;;;10.78;71.58;99525.94;4964883;28;20105;-45
2021/11/13 01:50:14;;;;;;;1.48;0.52;;;;;;;10.75;71.68;99525.13;4967350;28;21797;-47
2021/11/13 01:52:41;;;;;;;2.60;0.57;;;;;;;10.79;71.92;99537.16;4995423;28;20055;-48
2021/11/13 01:55:08;;;;;;;4.65;0.63;;;;;;;10.79;71.95;99543.22;4996726;28;20471;-44
2021/11/13 01:57:44;;;;;;;1.02;0.55;;;;;;;10.80;71.71;99547.50;4996653;28;20047;-50
2021/11/13 02:00:16;;;;;;;2.05;0.88;;;;;;;10.82;72.16;99567.34;4964209;28;20100;-49
2021/11/13 02:02:42;;;;;;;0.68;0.38;;;;;;;10.79;71.47;99563.94;4978096;28;20051;-52
2021/11/13 02:05:09;;;;;;;2.60;0.52;;;;;;;10.86;71.45;99576.78;4964960;28;20097;-49
2021/11/13 02:07:36;;;;;;;4.78;1.08;;;;;;;10.90;71.04;99575.88;4994219;28;20515;-50
2021/11/13 02:10:06;;;;;;;2.83;0.50;;;;;;;10.86;71.18;99579.38;4965061;28;20093;-45
2021/11/13 02:12:33;;;;;;;3.75;1.27;;;;;;;10.86;72.22;99592.34;4966872;28;20109;-48
2021/11/13 02:14:59;;;;;;;4.28;0.82;;;;;;;10.80;72.20;99578.59;4966138;28;20051;-52
2021/11/13 02:17:26;;;;;;;0.90;0.47;;;;;;;10.80;71.53;99580.31;4964888;28;20454;-48
2021/11/13 02:19:53;;;;;;;3.85;0.77;;;;;;;10.72;71.67;99588.19;4967049;28;20059;-47
2021/11/13 02:22:21;;;;;;;1.35;0.80;;;;;;;10.87;71.18;99591.44;4967491;28;20466;-48
2021/11/13 02:24:48;;;;;;;1.98;0.63;;;;;;;10.79;72.01;99592.44;4966771;28;20055;-47
2021/11/13 02:27:14;;;;;;;2.78;0.77;;;;;;;10.77;72.02;99591.56;4965090;28;20109;-50
2021/11/13 02:29:41;;;;;;;2.65;0.90;;;;;;;10.83;71.50;99582.88;4968396;28;20043;-52
2021/11/13 02:32:08;;;;;;;2.42;0.88;;;;;;;10.83;72.09;99584.59;4970226;28;20058;-46
2021/11/13 02:34:34;;;;;;;2.28;0.68;;;;;;;10.84;71.35;99594.94;4971514;28;20055;-46
2021/11/13 02:37:01;;;;;;;2.53;0.55;;;;;;;10.87;72.19;99601.81;4969873;28;20152;-47
2021/11/13 02:39:28;;;;;;;1.23;0.40;;;;;;;10.86;71.22;99600.09;4970632;28;20050;-45
2021/11/13 02:41:55;;;;;;;1.20;0.73;;;;;;;10.85;71.44;99598.41;4971014;28;20146;-46
2021/11/13 02:44:23;;;;;;;3.08;0.60;;;;;;;10.86;71.81;99608.75;4970576;28;20105;-49
2021/11/13 02:46:50;;;;;;;4.47;0.93;;;;;;;10.86;72.12;99606.16;4999954;28;20074;-51
2021/11/13 02:49:17;;;;;;;0.82;0.77;;;;;;;10.82;71.54;99603.63;4969884;28;20111;-53
2021/11/13 02:51:45;;;;;;;2.47;0.47;;;;;;;10.83;72.42;99598.41;4973480;28;20117;-49
2021/11/13 02:54:11;;;;;;;1.38;0.50;;;;;;;10.85;71.70;99593.22;4997797;28;20055;-47
2021/11/13 02:56:38;;;;;;;3.60;1.25;;;;;;;10.86;72.15;99602.69;4971554;28;20159;-51
2021/11/13 02:59:05;;;;;;;3.58;1.00;;;;;;;10.77;71.94;99591.56;4968729;28;20058;-53
2021/11/13 03:01:32;;;;;;;2.67;0.85;;;;;;;10.82;72.47;99601.03;4970329;28;20545;-48
2021/11/13 03:03:58;;;;;;;4.38;0.75;;;;;;;10.80;71.66;99594.13;4970443;28;20059;-47
2021/11/13 03:06:25;;;;;;;2.53;1.05;;;;;;;10.82;71.98;99608.78;4969102;28;20125;-45
2021/11/13 03:08:53;;;;;;;1.67;0.68;;;;;;;10.88;71.52;99603.56;4969980;28;20046;-49
2021/11/13 03:11:21;;;;;;;3.97;0.70;;;;;;;10.84;71.78;99610.50;4970917;28;20054;-50
2021/11/13 03:13:51;;;;;;;2.97;0.55;;;;;;;10.89;72.33;99605.25;4969739;28;20043;-47
2021/11/13 03:16:19;;;;;;;2.50;0.38;;;;;;;10.86;71.42;99600.09;4965870;28;20055;-47
2021/11/13 03:18:46;;;;;;;1.08;0.45;;;;;;;10.90;71.25;99619.94;4968381;28;20051;-45
2021/11/13 03:21:14;;;;;;;6.53;1.10;;;;;;;10.88;71.73;99617.34;4967782;28;20054;-50
2021/11/13 03:23:44;;;;;;;2.15;0.70;;;;;;;10.88;72.29;99622.53;4968866;28;20063;-48
2021/11/13 03:26:17;;;;;;;2.13;0.60;;;;;;;10.87;72.18;99628.59;4968945;28;20619;-46
2021/11/13 03:28:48;;;;;;;3.55;0.95;;;;;;;10.85;71.68;99635.53;4980542;28;20117;-50
2021/11/13 03:31:15;;;;;;;2.40;0.50;;;;;;;10.89;71.79;99633.75;4968654;28;20754;-50
2021/11/13 03:33:42;;;;;;;1.58;0.90;;;;;;;10.84;72.00;99638.16;4966281;28;20058;-48
2021/11/13 03:36:09;;;;;;;1.88;0.85;;;;;;;10.87;71.70;99648.44;4968795;28;20055;-49
2021/11/13 03:38:38;;;;;;;3.50;1.05;;;;;;;10.89;72.27;99646.72;4998464;28;20121;-52
2021/11/13 03:41:06;;;;;;;6.30;1.55;;;;;;;10.89;72.10;99651.91;4981381;28;20101;-43
2021/11/13 03:43:35;;;;;;;5.18;1.38;;;;;;;10.87;72.14;99661.41;4967842;28;20058;-49
2021/11/13 03:46:03;;;;;;;2.88;1.13;;;;;;;10.91;71.62;99666.56;4997807;28;20093;-49
2021/11/13 03:48:30;;;;;;;3.08;0.73;;;;;;;10.90;72.28;99669.16;4970552;28;20054;-45
2021/11/13 03:50:57;;;;;;;2.13;1.38;;;;;;;10.86;72.04;99675.25;4965638;28;20059;-49
2021/11/13 03:53:24;;;;;;;1.80;1.42;;;;;;;10.82;72.23;99678.75;4970030;28;20109;-45
2021/11/13 03:55:51;;;;;;;5.13;0.60;;;;;;;10.87;72.54;99676.94;4967783;28;20057;-52
2021/11/13 03:58:17;;;;;;;3.17;0.95;;;;;;;10.87;71.83;99679.53;4964599;28;20059;-44
2021/11/13 04:00:44;;;;;;;1.83;0.90;;;;;;;10.89;72.76;99680.41;4969342;28;20474;-50
2021/11/13 04:03:11;;;;;;;3.67;0.75;;;;;;;10.83;73.03;99685.63;4966602;28;20051;-48
2021/11/13 04:05:40;;;;;;;4.30;1.20;;;;;;;10.90;73.10;99684.69;4966814;28;20200;-45
2021/11/13 04:08:07;;;;;;;3.90;1.58;;;;;;;10.88;72.27;99686.47;4967761;28;20750;-48
2021/11/13 04:10:33;;;;;;;2.72;1.58;;;;;;;10.89;72.08;99685.59;4969050;28;20435;-46
2021/11/13 04:13:00;;;;;;;4.97;1.10;;;;;;;10.85;72.82;99692.53;4967262;28;20098;-47
2021/11/13 04:15:27;;;;;;;2.53;0.90;;;;;;;10.84;73.58;99689.97;4969070;28;20643;-46
2021/11/13 04:17:54;;;;;;;1.15;0.52;;;;;;;10.78;73.22;99691.72;4965514;28;20077;-45
2021/11/13 04:20:21;;;;;;;12.35;1.15;;;;;;;10.75;73.43;99694.34;4966958;28;20442;-49
2021/11/13 04:22:48;;;;;;;4.07;0.85;;;;;;;10.72;73.60;99691.78;4997557;28;20062;-48
2021/11/13 04:25:16;;;;;;;3.17;1.38;;;;;;;10.73;73.38;99693.50;4965749;28;20047;-48
2021/11/13 04:27:42;;;;;;;1.73;1.05;;;;;;;10.68;74.07;99697.88;4964910;28;20059;-50
2021/11/13 04:30:14;;;;;;;2.05;0.70;;;;;;;10.70;74.01;99703.88;4964689;28;20197;-47
2021/11/13 04:32:44;;;;;;;2.90;1.33;;;;;;;10.70;73.91;99703.88;4968032;28;20098;-49
2021/11/13 04:35:20;;;;;;;3.88;1.42;;;;;;;10.65;74.88;99705.66;4965120;28;20137;-47
2021/11/13 04:37:58;;;;;;;6.53;1.17;;;;;;;10.60;74.70;99722.97;4966890;28;20050;-47
2021/11/13 04:40:29;;;;;;;4.07;1.45;;;;;;;10.56;74.99;99726.44;4978890;28;20051;-47
2021/11/13 04:42:56;;;;;;;4.72;1.73;;;;;;;10.55;74.24;99728.19;4965815;28;20527;-47
2021/11/13 04:45:23;;;;;;;3.97;1.63;;;;;;;10.51;74.68;99735.09;4966970;28;20062;-43
2021/11/13 04:47:51;;;;;;;5.18;1.35;;;;;;;10.51;74.11;99732.53;4965040;28;20043;-47
2021/11/13 04:50:20;;;;;;;3.40;1.27;;;;;;;10.51;74.90;99734.25;4997945;28;20055;-45
2021/11/13 04:52:47;;;;;;;4.25;1.00;;;;;;;10.50;74.50;99730.81;4996906;28;20050;-44
2021/11/13 04:55:14;;;;;;;4.18;1.17;;;;;;;10.48;74.15;99729.97;4964745;28;20054;-51
2021/11/13 04:57:41;;;;;;;1.70;1.00;;;;;;;10.45;74.71;99745.53;4964911;28;20039;-47
2021/11/13 05:00:12;;;;;;;3.03;1.20;;;;;;;10.44;75.05;99743.78;4964527;28;20091;-53
2021/11/13 05:02:39;;;;;;;2.35;1.13;;;;;;;10.49;74.91;99756.72;4967427;28;20050;-49
2021/11/13 05:05:07;;;;;;;4.43;1.95;;;;;;;10.51;74.94;99755.81;4967379;28;20058;-45
2021/11/13 05:07:34;;;;;;;4.35;1.35;;;;;;;10.52;74.44;99762.75;4966982;28;20058;-52
2021/11/13 05:10:01;;;;;;;2.65;0.55;;;;;;;10.47;75.09;99764.47;4966170;28;20051;-46
2021/11/13 05:12:27;;;;;;;2.75;1.13;;;;;;;10.49;74.80;99773.13;4997330;28;20105;-47
2021/11/13 05:14:54;;;;;;;4.13;1.25;;;;;;;10.50;74.46;99772.25;4996788;28;20133;-45
2021/11/13 05:17:20;;;;;;;4.20;1.90;;;;;;;10.50;74.30;99777.41;4965960;28;20039;-48
2021/11/13 05:19:47;;;;;;;4.15;0.70;;;;;;;10.41;74.45;99780.03;4963932;28;20599;-50
2021/11/13 05:22:14;;;;;;;4.60;1.45;;;;;;;10.45;74.36;99776.59;4966142;28;20117;-48
2021/11/13 05:24:40;;;;;;;5.50;1.02;;;;;;;10.44;74.52;99779.16;4966966;28;20051;-45
2021/11/13 05:27:07;;;;;;;2.70;0.82;;;;;;;10.38;74.18;99782.66;4965644;28;20078;-47
2021/11/13 05:29:34;;;;;;;5.85;1.10;;;;;;;10.27;75.19;99782.72;4967923;28;20047;-49
2021/11/13 05:32:01;;;;;;;4.75;0.73;;;;;;;10.26;74.56;99792.19;4965182;28;20043;-45
2021/11/13 05:34:27;;;;;;;6.07;0.82;;;;;;;10.23;74.82;99807.75;4967713;28;20671;-46
2021/11/13 05:36:54;;;;;;;3.63;1.52;;;;;;;10.22;74.17;99811.22;4966424;28;20054;-47
2021/11/13 05:39:21;;;;;;;4.68;1.30;;;;;;;10.18;74.01;99809.50;4965660;28;20043;-47
2021/11/13 05:41:48;;;;;;;6.35;1.17;;;;;;;10.19;74.59;99818.97;4969529;28;20651;-47
2021/11/13 05:44:14;;;;;;;6.20;0.93;;;;;;;10.09;74.82;99813.00;4965422;28;20058;-43
2021/11/13 05:46:41;;;;;;;6.47;1.17;;;;;;;10.09;74.92;99825.06;4970410;28;20047;-45
2021/11/13 05:49:08;;;;;;;3.65;1.13;;;;;;;10.08;74.77;99828.53;4963808;28;20541;-46
2021/11/13 05:51:34;;;;;;;3.30;1.27;;;;;;;10.05;74.87;99834.56;4970379;28;20051;-46
2021/11/13 05:54:01;;;;;;;6.65;1.45;;;;;;;10.03;75.14;99834.59;4968756;28;20106;-50
2021/11/13 05:56:27;;;;;;;5.07;1.58;;;;;;;10.01;74.97;99838.03;4964962;28;20046;-51
2021/11/13 05:58:58;;;;;;;2.72;1.05;;;;;;;9.96;75.19;99840.63;4966463;28;20051;-48
2021/11/13 06:01:25;;;;;;;2.05;0.70;;;;;;;9.92;75.04;99832.91;4964734;28;20047;-52
2021/11/13 06:03:52;;;;;;;4.70;0.85;;;;;;;9.91;75.13;99837.22;4968716;28;20158;-44
2021/11/13 06:06:18;;;;;;;1.33;0.75;;;;;;;9.87;75.14;99835.50;4965551;28;20102;-49
2021/11/13 06:08:45;;;;;;;8.55;1.15;;;;;;;9.88;74.85;99837.22;4969084;28;20046;-47
2021/11/13 06:11:11;;;;;;;5.40;0.95;;;;;;;9.88;75.29;99844.97;4968840;28;20051;-46
2021/11/13 06:13:38;;;;;;;3.05;1.25;;;;;;;9.82;75.38;99853.63;4971157;28;20093;-49
2021/11/13 06:16:08;;;;;;;2.78;1.10;;;;;;;9.81;75.37;99851.03;4971148;28;20101;-47
2021/11/13 06:18:36;;;;;;;5.22;1.33;;;;;;;9.74;75.46;99855.38;4969380;28;20055;-45
2021/11/13 06:21:06;;;;;;;6.18;1.10;;;;;;;9.79;75.68;99863.13;5001874;28;20047;-46
2021/11/13 06:23:33;;;;;;;;;;;;;;;9.67;75.82;99864.88;4955322;28;20050;-47
2021/11/13 06:26:00;;;;;;;3.60;0.65;;;;;;;9.77;75.79;99866.56;4971598;28;19972;-44
2021/11/13 06:28:27;;;;;;;3.28;0.98;;;;;;;9.77;75.48;99871.72;4967271;28;20499;-47
2021/11/13 06:30:54;;;;;;;3.30;0.70;;;;;;;9.75;75.35;99873.47;4969990;28;20502;-47
2021/11/13 06:33:20;;;;;;;4.22;0.68;;;;;;;9.79;75.43;99878.66;4998595;28;20110;-47
2021/11/13 06:35:47;;;;;;;4.72;1.52;;;;;;;9.79;75.36;99889.84;4968228;28;20047;-49
2021/11/13 06:38:14;;;;;;;3.58;0.70;;;;;;;9.79;75.38;99883.81;4970263;28;20584;-46
2021/11/13 06:40:41;;;;;;;7.80;0.73;;;;;;;9.76;75.33;99895.88;4971000;28;20055;-48
2021/11/13 06:43:07;;;;;;;7.00;1.35;;;;;;;9.79;75.39;99904.50;4971757;28;20051;-51
2021/11/13 06:45:34;;;;;;;5.70;0.98;;;;;;;9.83;75.25;99906.22;4969732;28;20058;-48
2021/11/13 06:48:01;;;;;;;4.10;0.75;;;;;;;9.83;75.45;99916.56;4970235;28;20043;-45
2021/11/13 06:50:28;;;;;;;5.47;0.90;;;;;;;9.87;75.70;99919.13;4969226;28;20058;-50
2021/11/13 06:52:55;;;;;;;3.53;0.60;;;;;;;9.84;76.19;99914.00;4970370;28;20781;-51
2021/11/13 06:55:22;;;;;;;5.57;1.33;;;;;;;9.85;75.85;99922.59;4968912;28;20581;-46
2021/11/13 06:57:48;;;;;;;8.38;1.55;;;;;;;9.88;75.40;99926.06;4970853;28;20495;-47
2021/11/13 07:00:17;;;;;;;4.00;0.88;;;;;;;9.88;76.02;99935.53;4969619;28;20051;-46
2021/11/13 07:02:45;;;;;;;4.63;0.73;;;;;;;9.93;75.91;99944.13;4968604;28;20054;-47
2021/11/13 07:05:11;;;;;;;5.80;1.33;;;;;;;9.94;75.85;99943.28;4968324;28;20096;-45
2021/11/13 07:07:39;;;;;;;5.05;1.13;;;;;;;9.97;75.90;99945.84;4969852;28;20046;-48
2021/11/13 07:10:10;;;;;;;6.72;1.65;;;;;;;10.01;75.75;99950.19;4969092;28;20066;-47
2021/11/13 07:12:37;;;;;;;6.07;1.23;;;;;;;10.02;75.31;99962.25;4968088;28;20062;-48
2021/11/13 07:15:05;;;;;;;5.15;1.48;;;;;;;10.03;75.64;99961.38;4967805;28;20058;-50
2021/11/13 07:17:31;;;;;;;3.83;1.13;;;;;;;10.06;75.74;99968.25;4997551;28;20431;-49
2021/11/13 07:19:58;;;;;;;5.60;1.55;;;;;;;10.08;76.08;99973.44;4967818;28;20097;-46
2021/11/13 07:22:26;;;;;;;5.78;1.25;;;;;;;10.03;76.28;99976.91;4971502;28;20058;-44
2021/11/13 07:24:53;;;;;;;6.03;0.77;;;;;;;10.09;75.54;99982.91;4968582;28;20058;-45
2021/11/13 07:27:20;;;;;;;6.53;1.40;;;;;;;10.14;75.52;99981.19;4969426;28;20098;-50
2021/11/13 07:29:47;;;;;;;4.50;1.20;;;;;;;10.19;75.74;99997.56;4970668;28;20435;-48
2021/11/13 07:32:16;;;;;;;3.55;0.85;;;;;;;10.22;75.87;100002.75;4969930;28;20693;-53
2021/11/13 07:34:43;;;;;;;8.60;1.48;;;;;;;10.22;75.52;100007.94;4997193;28;20054;-46
2021/11/13 07:37:10;;;;;;;5.03;2.40;;;;;;;10.21;75.44;100011.38;4967442;28;20069;-44
2021/11/13 07:39:37;;;;;;;5.28;1.23;;;;;;;10.23;76.08;100012.22;4967108;28;20059;-50
2021/11/13 07:42:04;;;;;;;9.35;1.73;;;;;;;10.29;75.82;100020.00;4970109;28;20073;-51
2021/11/13 07:44:31;;;;;;;8.63;1.27;;;;;;;10.33;75.51;100028.59;4967786;28;20058;-45
2021/11/13 07:46:58;;;;;;;3.50;1.33;;;;;;;10.37;74.83;100026.88;4969814;28;20038;-52
2021/11/13 07:49:25;;;;;;;3.25;0.95;;;;;;;10.39;75.19;100025.13;4966951;28;20046;-51
2021/11/13 07:51:52;;;;;;;6.20;1.08;;;;;;;10.41;75.42;100026.00;4966880;28;20047;-42
2021/11/13 07:54:19;;;;;;;5.07;0.88;;;;;;;10.44;74.46;100038.97;4965348;28;20655;-47
2021/11/13 07:56:47;;;;;;;6.60;1.33;;;;;;;10.46;74.37;100046.72;4996400;28;20039;-43
2021/11/13 07:59:14;;;;;;;4.07;0.82;;;;;;;10.45;75.18;100051.06;4966284;28;20058;-51
2021/11/13 08:01:41;;;;;;;4.15;0.68;;;;;;;10.48;74.28;100055.38;4965677;28;20057;-48
2021/11/13 08:04:08;;;;;;;4.63;0.82;;;;;;;10.52;74.51;100057.09;4966502;28;20376;-49
2021/11/13 08:06:35;;;;;;;4.50;0.90;;;;;;;10.53;74.32;100064.84;4966965;28;20093;-43
2021/11/13 08:09:02;;;;;;;7.00;1.08;;;;;;;10.55;74.28;100070.03;4967079;28;20673;-46
2021/11/13 08:11:29;;;;;;;8.00;1.08;;;;;;;10.54;74.20;100066.56;4969101;28;20070;-49
2021/11/13 08:13:57;;;;;;;5.95;1.00;;;;;;;10.60;74.53;100070.03;4962463;28;20662;-44
2021/11/13 08:16:24;;;;;;;3.78;0.88;;;;;;;10.60;73.82;100070.03;4963693;28;20113;-50
2021/11/13 08:18:50;;;;;;;4.40;0.70;;;;;;;10.64;73.57;100074.34;4966284;28;20623;-45
2021/11/13 08:21:17;;;;;;;2.55;0.80;;;;;;;10.68;74.13;100076.06;4965654;28;20097;-50
2021/11/13 08:23:44;;;;;;;6.90;0.90;;;;;;;10.70;74.27;100079.47;4966664;28;20051;-45
2021/11/13 08:26:11;;;;;;;4.20;1.05;;;;;;;10.73;73.59;100082.06;4964577;28;20097;-48
2021/11/13 08:28:37;;;;;;;4.20;0.60;;;;;;;10.74;73.82;100081.19;4965300;28;20112;-46
2021/11/13 08:31:04;;;;;;;7.20;1.30;;;;;;;10.75;73.62;100088.13;4966187;28;20458;-47
2021/11/13 08:33:31;;;;;;;6.47;0.98;;;;;;;10.77;73.53;100086.38;4966505;28;20494;-48
2021/11/13 08:35:58;;;;;;;4.93;1.02;;;;;;;10.77;73.70;100094.16;4966438;28;20053;-45
2021/11/13 08:38:25;;;;;;;6.70;0.80;;;;;;;10.83;73.53;100097.56;4999542;28;20101;-52
2021/11/13 08:40:57;;;;;;;7.25;1.13;;;;;;;10.87;72.93;100107.06;4967706;28;20155;-45
2021/11/13 08:43:24;;;;;;;6.70;1.30;;;;;;;10.86;73.62;100102.75;4966656;28;20790;-44
2021/11/13 08:45:52;;;;;;;4.68;1.30;;;;;;;10.87;74.25;100110.53;4997132;28;20093;-48
2021/11/13 08:48:19;;;;;;;7.38;1.08;;;;;;;10.88;73.83;100111.41;4969103;28;20576;-43
2021/11/13 08:50:46;;;;;;;11.52;1.25;;;;;;;10.89;73.57;100110.53;4966030;28;20043;-46
2021/11/13 08:53:14;;;;;;;8.43;1.08;;;;;;;10.91;73.87;100116.56;4995633;28;20067;-51
2021/11/13 08:55:44;;;;;;;8.20;1.40;;;;;;;10.93;73.71;100125.19;4966120;28;20055;-49
2021/11/13 08:58:11;;;;;;;5.82;1.50;;;;;;;10.93;73.72;100130.38;4964625;28;20059;-49
2021/11/13 09:00:44;;;;;;;6.93;1.17;;;;;;;10.93;74.36;100135.56;4979077;28;20047;-55
2021/11/13 09:03:16;;;;;;;2.50;1.27;;;;;;;10.94;73.91;100129.50;4961988;28;20054;-51
2021/11/13 09:05:43;;;;;;;5.90;1.20;;;;;;;10.96;74.32;100135.56;4965600;28;20050;-48
2021/11/13 09:08:10;;;;;;;3.05;1.15;;;;;;;10.98;73.53;100128.63;4995063;28;20117;-45
2021/11/13 09:10:38;;;;;;;6.00;0.98;;;;;;;11.01;74.11;100128.63;4966470;28;20842;-49
2021/11/13 09:13:05;;;;;;;4.18;1.17;;;;;;;11.03;73.44;100131.22;4964075;28;20757;-46
2021/11/13 09:15:34;;;;;;;5.88;1.45;;;;;;;11.02;73.64;100132.09;4977289;28;20054;-47
2021/11/13 09:18:03;;;;;;;5.28;0.90;;;;;;;11.03;72.91;100132.09;4965302;28;20038;-50
2021/11/13 09:20:30;;;;;;;3.70;0.82;;;;;;;11.08;72.78;100141.56;4998252;28;20047;-50
2021/11/13 09:22:58;;;;;;;1.88;0.55;;;;;;;11.07;72.78;100137.25;4952312;28;20106;-50
2021/11/13 09:25:26;;;;;;;6.95;1.05;;;;;;;11.07;72.89;100147.63;4958070;28;20054;-43
2021/11/13 09:27:53;;;;;;;4.82;1.58;;;;;;;11.09;73.52;100156.25;4968366;28;20113;-48
2021/11/13 09:30:24;;;;;;;4.80;0.98;;;;;;;11.13;72.49;100152.78;4967053;28;20109;-46
2021/11/13 09:32:51;;;;;;;5.25;0.73;;;;;;;11.12;72.90;100156.25;4966181;28;20054;-45
2021/11/13 09:35:19;;;;;;;3.95;0.93;;;;;;;11.14;73.06;100157.09;4964405;28;20059;-46
2021/11/13 09:37:46;;;;;;;5.97;0.93;;;;;;;11.14;72.77;100155.38;4994061;28;20039;-49
2021/11/13 09:40:16;;;;;;;7.80;0.85;;;;;;;11.22;72.93;100167.44;4968076;28;20154;-49
2021/11/13 09:42:45;;;;;;;6.88;1.17;;;;;;;11.22;72.12;100170.03;4968942;28;20093;-47
2021/11/13 09:45:13;;;;;;;2.65;1.05;;;;;;;11.25;72.62;100170.88;4963687;28;20059;-48
2021/11/13 09:47:42;;;;;;;4.25;0.55;;;;;;;11.26;72.42;100164.84;4967742;28;20427;-48
2021/11/13 09:50:11;;;;;;;6.20;1.27;;;;;;;11.32;71.91;100175.16;4993847;28;20106;-46
2021/11/13 09:52:40;;;;;;;6.43;0.90;;;;;;;11.33;72.42;100173.44;4965328;28;20058;-47
2021/11/13 09:55:09;;;;;;;5.43;0.70;;;;;;;11.38;71.29;100183.81;4964469;28;20051;-51
2021/11/13 09:57:38;;;;;;;4.60;1.05;;;;;;;11.43;72.07;100187.25;4969179;28;20054;-45
2021/11/13 10:00:08;;;;;;;4.78;0.88;;;;;;;11.45;70.75;100190.69;4965988;28;20050;-46
2021/11/13 10:02:34;;;;;;;4.90;1.58;;;;;;;11.46;72.18;100196.75;4966896;28;20050;-48
2021/11/13 10:05:02;;;;;;;7.03;0.88;;;;;;;11.49;70.93;100207.97;4964372;28;20507;-48
2021/11/13 10:07:32;;;;;;;4.80;0.82;;;;;;;11.49;71.18;100207.97;4977457;28;20046;-44
2021/11/13 10:09:59;;;;;;;3.45;1.23;;;;;;;11.55;70.78;100213.13;4967474;28;20495;-49
2021/11/13 10:12:36;;;;;;;7.20;0.65;;;;;;;11.57;71.00;100208.81;4965583;28;20043;-50
2021/11/13 10:15:22;;;;;;;;;;;;;;;11.50;71.73;100211.41;4966001;28;20105;-47
2021/11/13 10:18:12;;;;;;;4.70;1.08;;;;;;;11.55;72.02;100213.13;4968259;28;19988;-50
2021/11/13 10:20:47;;;;;;;5.82;1.20;;;;;;;11.62;70.92;100211.34;4965901;28;20055;-45
2021/11/13 10:23:32;;;;;;;6.50;0.75;;;;;;;11.63;71.16;100215.69;4976288;28;20062;-47
2021/11/13 10:26:22;;;;;;;4.53;0.98;;;;;;;11.65;71.55;100219.13;4995218;28;20046;-47
2021/11/13 10:28:54;;;;;;;4.22;1.35;;;;;;;11.74;71.09;100233.81;4965640;28;20047;-46
2021/11/13 10:31:28;;;;;;;8.32;0.93;;;;;;;11.76;71.15;100226.84;4964040;28;20058;-51
2021/11/13 10:33:58;;;;;;;5.72;1.75;;;;;;;11.78;71.83;100230.31;4967651;28;20057;-51
2021/11/13 10:36:29;;;;;;;3.58;1.15;;;;;;;11.80;71.26;100233.78;4983384;28;20042;-47
2021/11/13 10:39:00;;;;;;;5.93;2.03;;;;;;;11.86;71.72;100232.03;4966520;28;20050;-45
2021/11/13 10:41:27;;;;;;;8.15;1.27;;;;;;;11.86;71.84;100232.03;4967385;28;20046;-47
2021/11/13 10:43:54;;;;;;;5.60;1.25;;;;;;;11.90;72.12;100233.72;4996901;28;20055;-44
2021/11/13 10:46:23;;;;;;;6.07;1.70;;;;;;;11.94;70.43;100233.72;4968751;28;20097;-46
2021/11/13 10:48:56;;;;;;;;;;;;;;;11.86;70.41;100226.84;4967507;28;20459;-51
2021/11/13 10:51:28;;;;;;;2.75;0.60;;;;;;;11.99;70.00;100223.28;4967596;28;19988;-48
2021/11/13 10:53:55;;;;;;;7.38;0.90;;;;;;;12.05;71.51;100227.56;4968349;28;20647;-44
2021/11/13 10:56:26;;;;;;;5.13;1.27;;;;;;;12.06;70.71;100230.19;4971680;28;20046;-41
2021/11/13 10:58:58;;;;;;;6.22;0.57;;;;;;;12.11;70.00;100232.78;4998978;28;20054;-44
2021/11/13 11:01:45;;;;;;;4.60;1.08;;;;;;;12.17;70.81;100234.47;4971385;28;20050;-48
2021/11/13 11:04:19;;;;;;;2.83;1.23;;;;;;;12.18;69.21;100237.06;4971006;28;20050;-44
2021/11/13 11:06:51;;;;;;;3.05;0.85;;;;;;;12.22;69.09;100230.09;4967003;28;20050;-46
2021/11/13 11:09:28;;;;;;;6.82;0.80;;;;;;;12.25;68.07;100234.41;5000250;28;20058;-44
2021/11/13 11:11:59;;;;;;;2.88;1.25;;;;;;;12.26;69.59;100237.00;4999948;28;20054;-46
2021/11/13 11:14:28;;;;;;;6.07;0.75;;;;;;;12.29;68.15;100236.97;4967784;28;20054;-47
2021/11/13 11:16:59;;;;;;;6.50;1.60;;;;;;;12.37;68.58;100234.34;4984707;28;20054;-47
2021/11/13 11:19:29;;;;;;;2.65;0.65;;;;;;;12.41;67.20;100241.25;4997960;28;20138;-46
2021/11/13 11:22:08;;;;;;;3.45;0.93;;;;;;;12.38;65.90;100245.59;4970498;28;20101;-46
2021/11/13 11:24:46;;;;;;;6.28;1.15;;;;;;;12.46;66.77;100243.78;4965440;28;20054;-50
2021/11/13 11:27:19;;;;;;;5.50;0.90;;;;;;;12.43;65.58;100243.84;4970742;28;20078;-50
2021/11/13 11:29:50;;;;;;;1.73;0.75;;;;;;;12.43;65.21;100238.63;4970809;28;20039;-49
2021/11/13 11:32:21;;;;;;;2.67;0.30;;;;;;;12.46;66.43;100236.00;4967282;28;20654;-45
2021/11/13 11:34:49;;;;;;;4.47;0.88;;;;;;;12.49;65.79;100238.56;4970327;28;20431;-47
2021/11/13 11:37:24;;;;;;;4.80;1.00;;;;;;;12.50;65.02;100229.91;4968914;28;20055;-47